Terminal Aerodrome Forecast
Issued by NWS

Home | Current Version | Previous Version | Text Only | Print | Product List | Glossary On
Versions: 1 2 3 4 5 6 7 8 9 10 11 12 13 14
000
FTAK31 PAJN 282325
TAFAWG
TAF
PAWG 282325Z 2900/2924 VRB06KT P6SM FEW070 SCT150
     FM290900 VRB06KT 6SM BCFG SCT004
     FM291200 00000KT 6SM -DZ BR OVC004
     FM291800 12004KT P6SM SCT120 BKN200
      AMD LTD TO CLD VIS AND WIND 2906/2915=

USA.gov is the U.S. government's official web portal to all federal, state and local government web resources and services.